createdAt,value
2017-10-17T00:02:51.680Z,9.13
2017-10-17T00:07:52.721Z,9.53
2017-10-17T00:12:53.792Z,9.60
2017-10-17T00:17:54.953Z,9.00
2017-10-17T00:22:56.023Z,9.47
2017-10-17T00:27:57.069Z,9.20
2017-10-17T00:32:58.129Z,9.70
2017-10-17T00:38:00.001Z,9.70
2017-10-17T00:43:04.805Z,10.70
2017-10-17T00:48:06.838Z,9.27
2017-10-17T00:53:07.894Z,9.77
2017-10-17T00:58:08.941Z,10.03
2017-10-17T01:03:10.721Z,9.60
2017-10-17T01:08:11.777Z,9.80
2017-10-17T01:13:13.545Z,9.57
2017-10-17T01:18:14.618Z,10.10
2017-10-17T01:23:20.657Z,10.20
2017-10-17T01:28:22.662Z,9.80
2017-10-17T01:33:23.725Z,10.30
2017-10-17T01:38:27.644Z,9.77
2017-10-17T01:43:28.705Z,10.10
2017-10-17T01:48:30.541Z,9.70
2017-10-17T01:53:33.514Z,10.10
2017-10-17T01:58:35.577Z,9.90
2017-10-17T02:03:37.649Z,10.97
2017-10-17T02:08:38.701Z,9.87
2017-10-17T02:13:39.761Z,11.10
2017-10-17T02:18:50.586Z,11.23
2017-10-17T02:23:51.730Z,10.90
2017-10-17T02:28:58.721Z,10.70
2017-10-17T02:34:00.682Z,10.37
2017-10-17T02:39:01.763Z,10.23
2017-10-17T02:44:02.814Z,11.40
2017-10-17T02:49:06.791Z,11.40
2017-10-17T02:54:07.786Z,11.33
2017-10-17T02:59:10.813Z,11.93
2017-10-17T03:04:11.861Z,11.07
2017-10-17T03:09:12.910Z,11.20
2017-10-17T03:19:45.229Z,10.70
2017-10-17T03:25:02.401Z,11.90
2017-10-17T03:30:04.571Z,13.47
2017-10-17T03:40:40.374Z,12.37
2017-10-17T03:45:42.543Z,11.87
2017-10-17T03:50:43.610Z,11.73
2017-10-17T03:55:44.649Z,11.63
2017-10-17T04:00:45.721Z,12.17
2017-10-17T04:05:56.751Z,12.67
2017-10-17T04:11:22.921Z,11.60
2017-10-17T04:16:40.601Z,11.40
2017-10-17T04:21:45.234Z,11.07
2017-10-17T04:26:51.174Z,11.37
2017-10-17T04:31:52.282Z,12.57
2017-10-17T04:36:59.233Z,11.40
2017-10-17T04:47:54.074Z,11.90
2017-10-17T04:53:07.502Z,11.97
2017-10-17T04:58:08.629Z,10.73
2017-10-17T05:03:15.673Z,11.77
2017-10-17T05:14:13.221Z,11.67
2017-10-17T05:19:24.213Z,12.10
2017-10-17T05:30:06.978Z,12.10
2017-10-17T05:35:10.025Z,11.70
2017-10-17T05:40:11.898Z,12.30
2017-10-17T05:45:13.757Z,12.13
2017-10-17T05:50:19.986Z,10.93
2017-10-17T05:55:21.007Z,11.87
2017-10-17T06:00:22.069Z,11.63
2017-10-17T06:05:23.133Z,10.90
2017-10-17T06:10:24.181Z,11.90
2017-10-17T06:15:25.238Z,12.63
2017-10-17T06:20:26.313Z,12.40
2017-10-17T06:25:27.474Z,11.00
2017-10-17T06:30:28.629Z,11.00
2017-10-17T06:35:29.713Z,12.07
2017-10-17T06:40:30.745Z,11.03
2017-10-17T06:45:31.809Z,16.80
2017-10-17T06:50:32.853Z,12.20
2017-10-17T06:55:37.609Z,11.30
2017-10-17T07:00:38.690Z,10.57
2017-10-17T07:05:39.739Z,10.77
2017-10-17T07:10:40.809Z,10.60
2017-10-17T07:15:41.866Z,11.40
2017-10-17T07:20:42.860Z,11.00
2017-10-17T07:25:43.961Z,12.20
2017-10-17T07:30:45.122Z,11.03
2017-10-17T07:35:46.189Z,11.83
2017-10-17T07:40:47.245Z,11.87
2017-10-17T07:45:49.341Z,11.13
2017-10-17T07:50:50.395Z,11.57
2017-10-17T07:55:51.454Z,10.80
2017-10-17T08:00:52.569Z,10.27
2017-10-17T08:05:53.783Z,11.00
2017-10-17T08:10:54.860Z,11.60
2017-10-17T08:15:55.889Z,10.63
2017-10-17T08:20:56.957Z,10.93
2017-10-17T08:25:58.005Z,11.37
2017-10-17T08:30:59.091Z,10.80
2017-10-17T08:36:00.206Z,10.60
2017-10-17T08:41:01.400Z,11.23
2017-10-17T08:46:02.435Z,10.43
2017-10-17T08:51:03.509Z,10.90
2017-10-17T08:56:04.670Z,10.53
2017-10-17T09:01:05.831Z,9.90
2017-10-17T09:06:06.929Z,10.80
2017-10-17T09:11:08.958Z,10.53
2017-10-17T09:16:11.075Z,10.50
2017-10-17T09:21:12.094Z,9.67
2017-10-17T09:26:13.162Z,10.27
2017-10-17T09:31:14.213Z,10.20
2017-10-17T09:36:15.274Z,9.67
2017-10-17T09:41:16.334Z,8.93
2017-10-17T09:46:17.391Z,8.70
2017-10-17T09:51:18.457Z,10.37
2017-10-17T09:56:19.513Z,9.60
2017-10-17T10:01:20.558Z,10.27
2017-10-17T10:06:21.632Z,9.43
2017-10-17T10:11:23.054Z,9.80
2017-10-17T10:16:24.250Z,9.60
2017-10-17T10:21:25.309Z,9.17
2017-10-17T10:26:26.379Z,9.50
2017-10-17T10:31:27.429Z,9.40
2017-10-17T10:36:28.486Z,9.50
2017-10-17T10:41:29.557Z,8.47
2017-10-17T10:46:30.613Z,8.50
2017-10-17T10:51:31.674Z,8.63
2017-10-17T10:56:32.701Z,7.83
2017-10-17T11:01:33.778Z,8.33
2017-10-17T11:06:34.845Z,7.97
2017-10-17T11:11:35.889Z,7.13
2017-10-17T11:16:37.045Z,7.73
2017-10-17T11:21:38.113Z,7.17
2017-10-17T11:26:39.170Z,7.10
2017-10-17T11:31:41.353Z,7.77
2017-10-17T11:36:42.490Z,7.50
2017-10-17T11:41:56.678Z,7.60
2017-10-17T11:46:57.814Z,7.87
2017-10-17T11:51:59.002Z,7.40
2017-10-17T11:57:00.059Z,7.70
2017-10-17T12:02:01.154Z,7.93
2017-10-17T12:07:02.203Z,8.57
2017-10-17T12:12:03.243Z,8.30
2017-10-17T12:17:04.386Z,8.40
2017-10-17T12:22:06.475Z,7.67
2017-10-17T12:27:07.541Z,6.70
2017-10-17T12:32:08.577Z,7.60
2017-10-17T12:37:09.698Z,7.30
2017-10-17T12:42:10.740Z,7.40
2017-10-17T12:47:11.768Z,6.70
2017-10-17T12:52:12.835Z,7.10
2017-10-17T12:57:13.873Z,8.43
2017-10-17T13:02:14.953Z,7.23
2017-10-17T13:07:16.010Z,7.40
2017-10-17T13:12:17.070Z,8.83
2017-10-17T13:17:18.117Z,7.30
2017-10-17T13:22:19.170Z,7.07
2017-10-17T13:27:20.270Z,6.80
2017-10-17T13:32:21.289Z,8.23
2017-10-17T13:37:22.345Z,7.13
2017-10-17T13:42:23.413Z,6.63
2017-10-17T13:47:24.409Z,7.23
2017-10-17T13:52:25.525Z,6.73
2017-10-17T13:57:26.589Z,6.50
2017-10-17T14:02:27.642Z,8.80
2017-10-17T14:07:28.722Z,6.43
2017-10-17T14:12:29.745Z,6.37
2017-10-17T14:17:30.849Z,6.20
2017-10-17T14:22:31.990Z,5.93
2017-10-17T14:27:33.145Z,6.80
2017-10-17T14:32:34.218Z,6.53
2017-10-17T14:37:35.249Z,5.80
2017-10-17T14:42:36.318Z,5.73
2017-10-17T14:47:37.379Z,6.17
2017-10-17T14:52:38.542Z,6.13
2017-10-17T14:57:40.642Z,6.43
2017-10-17T15:02:41.803Z,6.40
2017-10-17T15:07:42.946Z,7.73
2017-10-17T15:12:44.091Z,7.23
2017-10-17T15:17:45.175Z,8.23
2017-10-17T15:22:47.375Z,6.20
2017-10-17T15:27:48.487Z,6.17
2017-10-17T15:32:49.558Z,6.20
2017-10-17T15:37:50.621Z,7.10
2017-10-17T15:42:51.687Z,8.07
2017-10-17T15:47:52.726Z,8.70
2017-10-17T15:52:53.788Z,7.50
2017-10-17T15:57:54.858Z,7.30
2017-10-17T16:02:57.050Z,7.40
2017-10-17T16:07:58.093Z,6.30
2017-10-17T16:13:00.178Z,6.70
2017-10-17T16:18:01.251Z,6.87
2017-10-17T16:23:02.291Z,6.20
2017-10-17T16:28:03.351Z,6.97
2017-10-17T16:33:04.418Z,7.53
2017-10-17T16:38:05.599Z,12.40
2017-10-17T16:43:06.765Z,8.20
2017-10-17T16:48:07.839Z,7.80
2017-10-17T16:53:08.906Z,9.00
2017-10-17T16:58:09.954Z,8.03
2017-10-17T17:03:12.183Z,7.17
2017-10-17T17:08:13.496Z,7.60
2017-10-17T17:13:14.610Z,7.73
2017-10-17T17:18:15.777Z,7.80
2017-10-17T17:23:16.925Z,8.07
2017-10-17T17:28:17.977Z,9.37
2017-10-17T17:33:20.086Z,7.47
2017-10-17T17:38:21.248Z,9.90
2017-10-17T17:43:22.302Z,9.10
2017-10-17T17:48:23.362Z,7.93
2017-10-17T17:53:24.442Z,8.97
2017-10-17T17:58:25.476Z,7.97
2017-10-17T18:03:26.565Z,7.70
2017-10-17T18:08:27.697Z,9.83
2017-10-17T18:13:28.767Z,8.70
2017-10-17T18:18:29.826Z,8.50
2017-10-17T18:23:30.884Z,7.80
2017-10-17T18:28:31.933Z,7.60
2017-10-17T18:33:32.993Z,6.90
2017-10-17T18:38:34.078Z,7.83
2017-10-17T18:43:35.135Z,7.70
2017-10-17T18:48:36.278Z,7.40
2017-10-17T18:53:38.353Z,7.20
2017-10-17T18:58:39.447Z,7.13
2017-10-17T19:03:42.601Z,6.97
2017-10-17T19:08:43.738Z,6.80
2017-10-17T19:13:44.733Z,6.13
2017-10-17T19:18:45.901Z,6.63
2017-10-17T19:23:47.061Z,7.13
2017-10-17T19:28:49.141Z,7.40
2017-10-17T19:33:50.193Z,8.43
2017-10-17T19:38:51.256Z,7.43
2017-10-17T19:43:52.314Z,7.67
2017-10-17T19:48:53.478Z,7.87
2017-10-17T19:53:54.555Z,7.87
2017-10-17T19:58:55.597Z,7.33
2017-10-17T20:03:56.658Z,7.10
2017-10-17T20:08:57.717Z,8.13
2017-10-17T20:13:58.783Z,8.10
2017-10-17T20:18:59.832Z,7.60
2017-10-17T20:24:00.887Z,7.43
2017-10-17T20:29:03.069Z,7.60
2017-10-17T20:34:04.114Z,7.40
2017-10-17T20:39:05.180Z,7.50
2017-10-17T20:44:06.253Z,7.03
2017-10-17T20:49:07.301Z,6.90
2017-10-17T20:54:08.337Z,6.70
2017-10-17T20:59:10.139Z,7.23
2017-10-17T21:04:11.198Z,6.83
2017-10-17T21:09:12.254Z,8.23
2017-10-17T21:14:13.294Z,7.27
2017-10-17T21:19:14.349Z,8.73
2017-10-17T21:24:15.440Z,9.37
2017-10-17T21:29:16.485Z,8.70
2017-10-17T21:34:17.559Z,11.03
2017-10-17T21:39:18.610Z,9.67
2017-10-17T21:44:19.657Z,9.10
2017-10-17T21:49:20.722Z,9.50
2017-10-17T21:54:21.888Z,8.67
2017-10-17T21:59:23.014Z,9.37
2017-10-17T22:04:24.822Z,8.87
2017-10-17T22:09:25.877Z,9.67
2017-10-17T22:14:26.933Z,9.27
2017-10-17T22:19:27.990Z,9.30
2017-10-17T22:24:29.045Z,8.37
2017-10-17T22:29:30.100Z,9.20
2017-10-17T22:34:31.159Z,9.23
2017-10-17T22:39:32.230Z,8.77
2017-10-17T22:44:33.278Z,7.83
2017-10-17T22:49:34.448Z,8.87
2017-10-17T22:54:36.633Z,8.37
2017-10-17T22:59:37.774Z,8.90
2017-10-17T23:04:38.847Z,9.17
2017-10-17T23:09:39.890Z,8.30
2017-10-17T23:14:40.962Z,9.90
2017-10-17T23:25:16.968Z,8.20
2017-10-17T23:30:18.025Z,8.90
2017-10-17T23:35:19.069Z,8.50
2017-10-17T23:40:20.141Z,8.67
2017-10-17T23:45:21.191Z,9.20
2017-10-17T23:50:22.265Z,8.80
2017-10-17T23:55:23.426Z,8.40
